Time;durP1;ratioP1;P1;durP2;ratioP2;P2;SDS_P1;SDS_P2;PMS_P1;PMS_P2;Temp;Humidity;BMP_temperature;BMP_pressure;BME280_temperature;BME280_humidity;BME280_pressure;Samples;Min_cycle;Max_cycle;Signal;HPM_P1;HPM_P2
2023/06/20 04:31:16;;;;;;;12.13;5.78;;;20.90;81.70;;;;;;5508479;23;20062;-82
2023/06/20 04:33:45;;;;;;;9.73;5.75;;;20.90;81.70;;;;;;4979836;28;20027;-82
2023/06/20 04:36:13;;;;;;;12.82;6.95;;;20.90;81.70;;;;;;4992080;28;20038;-82
2023/06/20 04:38:43;;;;;;;10.85;6.25;;;20.90;81.80;;;;;;4971509;28;20050;-82
2023/06/20 04:41:10;;;;;;;10.85;6.10;;;20.90;81.80;;;;;;4976959;28;20039;-82
2023/06/20 04:43:36;;;;;;;10.90;6.80;;;20.90;81.80;;;;;;4953700;29;20110;-82
2023/06/20 04:46:04;;;;;;;11.15;6.15;;;20.90;81.70;;;;;;4953425;28;20038;-82
2023/06/20 04:48:35;;;;;;;12.82;6.55;;;20.90;81.70;;;;;;4963937;28;20151;-83
2023/06/20 04:51:01;;;;;;;9.38;5.90;;;20.80;81.60;;;;;;4956924;28;20046;-81
2023/06/20 04:53:27;;;;;;;11.00;6.35;;;20.80;81.90;;;;;;4953944;28;20054;-81
2023/06/20 04:55:53;;;;;;;10.32;5.60;;;20.80;81.60;;;;;;4945034;28;20577;-77
2023/06/20 04:58:19;;;;;;;11.25;5.50;;;20.80;81.50;;;;;;4961758;28;20031;-79
2023/06/20 05:00:45;;;;;;;12.50;6.78;;;20.80;81.40;;;;;;4971647;28;20038;-81
2023/06/20 05:03:10;;;;;;;10.45;6.45;;;20.80;81.30;;;;;;4978901;28;20007;-80
2023/06/20 05:05:36;;;;;;;11.07;6.60;;;20.80;81.50;;;;;;4986583;28;20105;-81
2023/06/20 05:08:02;;;;;;;11.27;6.32;;;20.80;81.40;;;;;;4971175;28;20031;-80
2023/06/20 05:10:27;;;;;;;12.73;6.53;;;20.90;81.20;;;;;;4944872;28;20031;-79
2023/06/20 05:12:53;;;;;;;10.90;6.38;;;20.90;81.10;;;;;;4967615;28;20031;-79
2023/06/20 05:15:25;;;;;;;11.32;6.00;;;20.90;80.80;;;;;;4957346;29;20027;-80
2023/06/20 05:17:52;;;;;;;10.32;5.88;;;20.80;80.90;;;;;;4940329;29;20027;-80
2023/06/20 05:20:17;;;;;;;11.50;6.00;;;20.80;80.90;;;;;;4977821;28;20039;-79
2023/06/20 05:22:43;;;;;;;11.38;6.22;;;20.90;80.90;;;;;;4957536;29;20086;-81
2023/06/20 05:25:09;;;;;;;12.05;6.40;;;20.90;80.80;;;;;;4952117;28;20102;-79
2023/06/20 05:27:35;;;;;;;10.52;6.05;;;20.90;80.80;;;;;;4972668;28;20077;-80
2023/06/20 05:30:01;;;;;;;10.32;5.97;;;21.00;80.60;;;;;;4959743;28;20035;-81
2023/06/20 05:32:26;;;;;;;9.95;5.18;;;21.00;80.60;;;;;;4937235;29;20055;-80
2023/06/20 05:34:53;;;;;;;10.15;5.90;;;21.00;80.60;;;;;;4950078;28;20042;-80
2023/06/20 05:37:19;;;;;;;10.93;5.85;;;21.00;80.50;;;;;;4988458;28;20018;-80
2023/06/20 05:39:44;;;;;;;10.18;5.80;;;21.10;80.30;;;;;;4967290;28;20086;-80
2023/06/20 05:42:10;;;;;;;8.90;5.88;;;21.10;80.00;;;;;;4976294;28;20023;-81
2023/06/20 05:44:36;;;;;;;11.65;5.97;;;21.20;79.90;;;;;;4976213;28;20038;-82
2023/06/20 05:47:03;;;;;;;9.27;5.88;;;21.20;79.70;;;;;;4971889;28;20047;-81
2023/06/20 05:49:29;;;;;;;12.15;5.57;;;21.20;79.80;;;;;;4973990;28;20086;-82
2023/06/20 05:51:54;;;;;;;9.35;6.00;;;21.10;79.90;;;;;;4956574;28;20039;-81
2023/06/20 05:54:22;;;;;;;12.70;6.45;;;21.10;79.80;;;;;;4956674;29;20042;-81
2023/06/20 05:56:49;;;;;;;10.20;6.38;;;21.00;80.10;;;;;;4965508;28;20029;-81
2023/06/20 05:59:15;;;;;;;10.57;6.22;;;21.00;80.20;;;;;;4998886;28;20034;-81
2023/06/20 06:01:40;;;;;;;11.60;6.13;;;21.10;80.30;;;;;;4961290;28;20474;-81
2023/06/20 06:04:06;;;;;;;10.82;6.43;;;21.20;80.00;;;;;;4967575;28;20050;-81
2023/06/20 06:06:32;;;;;;;10.73;6.10;;;21.20;80.10;;;;;;4978676;28;20957;-81
2023/06/20 06:08:58;;;;;;;11.52;6.10;;;21.30;79.50;;;;;;4970239;28;20035;-81
2023/06/20 06:11:25;;;;;;;12.18;6.53;;;21.30;79.70;;;;;;4983751;28;20038;-81
2023/06/20 06:13:51;;;;;;;14.10;6.50;;;21.30;79.60;;;;;;4998699;28;20477;-81
2023/06/20 06:16:17;;;;;;;13.25;6.53;;;21.30;79.80;;;;;;4998608;28;20062;-81
2023/06/20 06:18:43;;;;;;;9.27;6.00;;;21.30;79.80;;;;;;4970091;28;20027;-81
2023/06/20 06:21:09;;;;;;;11.18;6.03;;;21.30;79.70;;;;;;4959947;29;20110;-81
2023/06/20 06:23:35;;;;;;;9.32;6.15;;;21.30;79.80;;;;;;4961350;28;20035;-80
2023/06/20 06:26:00;;;;;;;15.43;7.10;;;21.30;79.70;;;;;;4965241;28;20031;-80
2023/06/20 06:28:28;;;;;;;11.25;5.93;;;21.30;79.90;;;;;;4994499;28;20440;-81
2023/06/20 06:30:54;;;;;;;9.82;6.10;;;21.30;80.00;;;;;;4975266;28;20051;-81
2023/06/20 06:33:21;;;;;;;11.35;6.65;;;21.30;79.90;;;;;;4960765;28;20026;-81
2023/06/20 06:35:47;;;;;;;10.93;6.53;;;21.30;79.80;;;;;;4977529;28;20034;-81
2023/06/20 06:38:14;;;;;;;10.25;6.47;;;21.30;79.90;;;;;;4963010;28;20027;-81
2023/06/20 06:40:39;;;;;;;11.63;6.90;;;21.30;80.00;;;;;;4968179;28;20058;-81
2023/06/20 06:43:05;;;;;;;10.48;5.80;;;21.20;80.40;;;;;;4959357;28;20058;-81
2023/06/20 06:45:32;;;;;;;11.13;6.15;;;21.30;80.30;;;;;;4941774;29;20034;-81
2023/06/20 06:47:58;;;;;;;11.85;6.57;;;21.30;80.20;;;;;;4965489;28;20071;-81
2023/06/20 06:50:23;;;;;;;12.05;6.32;;;21.20;80.20;;;;;;4978467;28;20027;-80
2023/06/20 06:52:49;;;;;;;10.88;6.63;;;21.30;80.00;;;;;;4973738;28;20031;-80
2023/06/20 06:55:15;;;;;;;9.80;6.15;;;21.40;80.00;;;;;;4968896;28;20039;-80
2023/06/20 06:57:41;;;;;;;13.68;6.50;;;21.50;79.80;;;;;;4968383;28;20106;-80
2023/06/20 07:00:11;;;;;;;12.98;6.55;;;21.60;79.30;;;;;;4947291;28;20038;-81
2023/06/20 07:02:36;;;;;;;12.02;6.32;;;21.70;79.30;;;;;;4966067;28;20030;-81
2023/06/20 07:05:04;;;;;;;9.55;5.95;;;21.80;79.20;;;;;;4970916;28;20034;-80
2023/06/20 07:07:30;;;;;;;10.85;5.88;;;21.90;78.50;;;;;;4972126;28;20038;-80
2023/06/20 07:09:55;;;;;;;12.35;6.90;;;21.80;78.60;;;;;;4968727;28;20029;-81
2023/06/20 07:12:21;;;;;;;11.65;6.88;;;21.90;78.60;;;;;;4968566;28;20023;-80
2023/06/20 07:14:50;;;;;;;10.63;5.70;;;22.00;78.30;;;;;;4951763;28;20030;-81
2023/06/20 07:17:15;;;;;;;9.10;5.95;;;22.00;77.90;;;;;;4967015;28;20038;-78
2023/06/20 07:19:43;;;;;;;10.55;6.05;;;22.10;78.20;;;;;;4967074;28;20031;-81
2023/06/20 07:22:09;;;;;;;10.27;6.25;;;22.30;78.10;;;;;;4958895;28;20038;-81
2023/06/20 07:24:35;;;;;;;9.98;6.20;;;22.30;77.60;;;;;;4970483;28;20035;-82
2023/06/20 07:27:00;;;;;;;10.23;6.20;;;22.40;77.10;;;;;;4967036;28;20023;-83
2023/06/20 07:29:26;;;;;;;10.77;5.53;;;22.40;76.80;;;;;;4969434;28;20045;-80
2023/06/20 07:31:52;;;;;;;12.45;6.13;;;22.30;76.70;;;;;;4951539;28;20047;-81
2023/06/20 07:34:17;;;;;;;10.25;5.68;;;22.30;77.00;;;;;;4972967;28;20041;-82
2023/06/20 07:36:43;;;;;;;9.60;5.57;;;22.30;76.90;;;;;;4951953;28;20019;-82
2023/06/20 07:39:09;;;;;;;12.93;5.75;;;22.30;76.50;;;;;;4968391;28;20041;-83
2023/06/20 07:41:34;;;;;;;9.75;5.15;;;22.40;76.60;;;;;;4967102;28;20030;-84
2023/06/20 07:44:00;;;;;;;10.75;5.47;;;22.50;76.00;;;;;;4967874;28;20111;-84
2023/06/20 07:46:26;;;;;;;7.60;4.80;;;22.80;74.90;;;;;;4968565;28;20038;-83
2023/06/20 07:48:51;;;;;;;10.93;4.97;;;23.50;73.10;;;;;;4972158;28;20055;-82
2023/06/20 07:51:17;;;;;;;7.50;4.43;;;24.00;70.40;;;;;;4972159;28;20046;-79
2023/06/20 07:53:43;;;;;;;7.80;4.60;;;24.20;69.20;;;;;;4959727;28;20031;-81
2023/06/20 07:56:08;;;;;;;7.35;4.43;;;24.00;69.70;;;;;;4969212;28;20069;-79
2023/06/20 07:58:34;;;;;;;9.90;4.45;;;24.60;69.20;;;;;;4968136;28;20045;-79
2023/06/20 08:01:00;;;;;;;8.00;4.55;;;25.30;66.80;;;;;;4971231;28;20469;-79
2023/06/20 08:03:26;;;;;;;6.40;4.40;;;26.20;64.10;;;;;;4972230;28;20098;-79
2023/06/20 08:05:52;;;;;;;8.93;4.15;;;26.70;62.60;;;;;;4964925;28;20764;-80
2023/06/20 08:08:17;;;;;;;7.07;4.10;;;26.90;60.80;;;;;;4962576;28;20544;-80
2023/06/20 08:10:43;;;;;;;7.70;4.38;;;26.90;60.60;;;;;;4964566;28;20031;-79
2023/06/20 08:13:09;;;;;;;7.28;4.78;;;26.70;60.80;;;;;;4959726;28;20031;-82
2023/06/20 08:15:35;;;;;;;9.27;3.97;;;26.30;61.60;;;;;;4969311;28;20066;-80
2023/06/20 08:18:00;;;;;;;7.60;4.25;;;26.20;62.10;;;;;;4967807;28;20019;-79
2023/06/20 08:20:26;;;;;;;5.90;3.70;;;27.20;60.20;;;;;;4966786;28;20034;-79
2023/06/20 08:22:51;;;;;;;6.72;3.80;;;29.00;52.50;;;;;;4963915;28;20026;-80
2023/06/20 08:25:17;;;;;;;6.88;4.30;;;29.50;52.00;;;;;;4979314;28;20035;-81
2023/06/20 08:27:43;;;;;;;5.95;4.03;;;30.60;49.80;;;;;;4976928;28;20023;-83
2023/06/20 08:30:09;;;;;;;7.22;3.83;;;31.30;46.80;;;;;;4976531;28;20030;-85
2023/06/20 08:32:36;;;;;;;6.07;3.53;;;32.30;44.20;;;;;;4974823;28;20046;-87
2023/06/20 08:35:02;;;;;;;5.78;3.80;;;32.30;44.70;;;;;;4954931;28;20430;-89
2023/06/20 08:37:28;;;;;;;6.25;4.30;;;32.60;43.10;;;;;;4959785;28;20074;-85
2023/06/20 08:39:53;;;;;;;5.68;4.10;;;32.70;44.30;;;;;;4976015;28;20030;-86
2023/06/20 08:42:19;;;;;;;5.38;3.90;;;32.30;43.60;;;;;;4977319;28;20055;-88
2023/06/20 08:44:45;;;;;;;5.78;3.75;;;33.40;41.60;;;;;;4959922;28;20489;-85
2023/06/20 08:47:11;;;;;;;6.18;4.05;;;33.80;41.30;;;;;;4957704;28;20137;-87
2023/06/20 08:49:36;;;;;;;5.25;3.40;;;34.30;39.50;;;;;;4969261;28;20027;-89
2023/06/20 08:52:11;;;;;;;4.57;3.08;;;33.70;41.00;;;;;;4966852;28;20038;-89
2023/06/20 08:54:41;;;;;;;4.45;2.90;;;33.10;40.90;;;;;;4952825;28;20050;-89
2023/06/20 08:57:07;;;;;;;5.65;3.30;;;33.60;40.00;;;;;;4968096;28;20398;-86
2023/06/20 08:59:36;;;;;;;5.95;3.60;;;34.00;39.00;;;;;;4966143;28;20067;-85
2023/06/20 09:02:03;;;;;;;5.13;4.53;;;34.40;38.60;;;;;;4950722;28;20114;-88
2023/06/20 09:04:29;;;;;;;4.60;3.30;;;34.60;38.60;;;;;;4968980;28;20393;-89
2023/06/20 09:06:56;;;;;;;5.10;3.03;;;34.80;38.30;;;;;;4950291;28;20046;-87
2023/06/20 09:09:21;;;;;;;4.82;3.28;;;34.40;38.60;;;;;;4966830;28;20023;-89
2023/06/20 09:11:58;;;;;;;5.57;3.50;;;34.10;38.60;;;;;;4969013;28;20031;-89
2023/06/20 09:14:28;;;;;;;5.72;3.60;;;33.90;39.40;;;;;;4967288;28;20026;-89
2023/06/20 09:16:54;;;;;;;5.78;3.53;;;33.80;39.50;;;;;;4959998;28;20510;-86
2023/06/20 09:19:23;;;;;;;4.50;3.30;;;34.70;37.70;;;;;;4957265;29;20019;-88
2023/06/20 09:21:49;;;;;;;5.00;3.10;;;35.30;36.90;;;;;;4962618;28;20062;-83
2023/06/20 09:24:21;;;;;;;5.80;3.35;;;35.30;36.90;;;;;;4970765;28;20035;-81
2023/06/20 09:26:47;;;;;;;5.47;3.28;;;35.70;36.30;;;;;;4964292;28;20493;-81
2023/06/20 09:29:17;;;;;;;4.03;3.00;;;35.10;36.90;;;;;;4958467;28;20042;-81
2023/06/20 09:31:45;;;;;;;4.18;2.70;;;35.30;36.70;;;;;;4966000;28;20420;-81
2023/06/20 09:34:18;;;;;;;4.88;3.33;;;35.00;36.00;;;;;;4970847;28;20557;-81
2023/06/20 09:36:45;;;;;;;5.07;2.90;;;34.90;37.10;;;;;;4970742;28;20470;-81
2023/06/20 09:39:22;;;;;;;5.55;2.90;;;34.00;37.70;;;;;;4969308;28;20127;-81
2023/06/20 09:41:52;;;;;;;4.88;3.10;;;33.60;38.00;;;;;;4971553;28;20027;-80
2023/06/20 09:44:19;;;;;;;5.75;2.30;;;34.30;37.60;;;;;;4968882;28;20082;-81
2023/06/20 09:46:46;;;;;;;5.72;2.85;;;33.30;38.70;;;;;;4971254;28;20035;-81
2023/06/20 09:49:13;;;;;;;4.32;2.13;;;34.50;37.30;;;;;;4971276;28;20070;-81
2023/06/20 09:51:47;;;;;;;4.05;2.30;;;33.80;36.40;;;;;;4968300;28;20090;-81
2023/06/20 09:54:15;;;;;;;5.55;3.40;;;32.20;38.10;;;;;;4970729;28;20570;-81
2023/06/20 09:56:47;;;;;;;3.80;2.20;;;32.90;38.00;;;;;;4970978;28;20023;-81
2023/06/20 09:59:15;;;;;;;4.40;2.63;;;32.50;38.80;;;;;;4968741;28;20497;-81
2023/06/20 10:01:42;;;;;;;4.47;2.60;;;32.60;39.20;;;;;;4971060;28;20023;-81
2023/06/20 10:04:08;;;;;;;4.55;2.50;;;33.60;38.00;;;;;;4969131;28;20106;-81
2023/06/20 10:06:37;;;;;;;4.65;2.20;;;33.90;38.10;;;;;;4951326;28;20027;-81
2023/06/20 10:09:07;;;;;;;3.95;2.53;;;33.10;38.00;;;;;;4971523;28;20026;-81
2023/06/20 10:11:36;;;;;;;4.80;2.15;;;32.30;39.90;;;;;;4969914;28;20071;-81
2023/06/20 10:14:03;;;;;;;4.50;2.25;;;32.60;39.40;;;;;;4942725;29;20125;-80
2023/06/20 10:16:29;;;;;;;4.25;2.50;;;31.70;40.60;;;;;;4966366;28;20027;-81
2023/06/20 10:18:55;;;;;;;6.15;2.45;;;31.00;42.00;;;;;;4988679;28;20514;-80
2023/06/20 10:21:57;;;;;;;4.97;2.45;;;31.30;41.40;;;;;;4972209;28;20114;-85
2023/06/20 10:24:28;;;;;;;3.90;2.55;;;31.60;41.70;;;;;;4974891;28;20022;-81
2023/06/20 10:26:55;;;;;;;;;;;32.00;40.30;;;;;;4993508;28;20039;-81
2023/06/20 10:29:21;;;;;;;4.82;2.75;;;32.70;39.70;;;;;;4959814;29;19910;-81
2023/06/20 10:32:07;;;;;;;3.83;2.08;;;33.10;40.60;;;;;;4959554;29;20066;-81
2023/06/20 10:34:35;;;;;;;3.95;2.60;;;32.50;38.10;;;;;;4970590;28;20035;-80
2023/06/20 10:37:17;;;;;;;4.72;2.47;;;31.80;40.40;;;;;;4977829;28;20034;-81
2023/06/20 10:39:52;;;;;;;;;;;31.30;41.30;;;;;;4979386;28;20034;-81
2023/06/20 10:42:40;;;;;;;4.28;2.15;;;30.60;42.90;;;;;;4957248;28;19956;-80
2023/06/20 10:45:25;;;;;;;4.10;1.98;;;30.30;43.10;;;;;;4942308;29;20031;-80
2023/06/20 10:47:52;;;;;;;4.68;2.53;;;30.00;43.00;;;;;;4959415;29;20031;-80
2023/06/20 10:50:19;;;;;;;5.47;2.30;;;30.00;43.80;;;;;;4969589;28;20113;-80
2023/06/20 10:52:45;;;;;;;5.18;2.20;;;29.70;44.80;;;;;;4978700;28;20035;-80
2023/06/20 10:55:22;;;;;;;3.85;2.22;;;29.50;45.40;;;;;;4978465;28;20090;-80
2023/06/20 10:57:50;;;;;;;5.05;1.90;;;29.20;44.60;;;;;;4974491;28;20063;-81
2023/06/20 11:00:19;;;;;;;4.00;1.92;;;28.80;45.20;;;;;;4958338;28;20130;-80
2023/06/20 11:02:50;;;;;;;4.03;2.03;;;28.50;45.30;;;;;;4942036;29;20031;-80
2023/06/20 11:05:16;;;;;;;6.25;2.22;;;28.50;46.30;;;;;;4975848;28;20071;-80
2023/06/20 11:08:10;;;;;;;4.25;2.13;;;28.80;46.10;;;;;;4977520;28;20467;-81
2023/06/20 11:10:37;;;;;;;4.00;1.92;;;29.00;45.00;;;;;;4973407;28;20090;-80
2023/06/20 11:13:05;;;;;;;5.28;2.25;;;29.10;45.20;;;;;;4978419;28;20031;-81
2023/06/20 11:15:35;;;;;;;4.20;1.95;;;29.10;46.40;;;;;;4978140;28;20029;-80
2023/06/20 11:18:04;;;;;;;3.55;1.90;;;29.20;44.40;;;;;;4959422;28;20394;-80
2023/06/20 11:20:35;;;;;;;3.92;1.70;;;29.20;44.10;;;;;;4941783;29;20062;-80
2023/06/20 11:23:05;;;;;;;3.78;1.92;;;29.20;44.10;;;;;;4960541;28;20058;-80
2023/06/20 11:25:33;;;;;;;4.28;1.88;;;29.20;46.50;;;;;;4993182;28;20081;-80
2023/06/20 11:28:06;;;;;;;5.90;2.00;;;29.30;44.70;;;;;;4979974;28;20031;-80
2023/06/20 11:30:33;;;;;;;3.42;1.90;;;29.30;43.00;;;;;;4972287;28;20812;-80
2023/06/20 11:33:05;;;;;;;4.93;2.22;;;29.20;43.90;;;;;;4976119;28;20034;-80
2023/06/20 11:35:51;;;;;;;4.13;2.33;;;29.00;43.00;;;;;;4977822;28;20393;-80
2023/06/20 11:38:20;;;;;;;2.78;1.58;;;28.80;44.90;;;;;;4959244;28;20055;-80
2023/06/20 11:40:47;;;;;;;3.45;1.85;;;29.00;45.50;;;;;;4960750;28;20031;-80
2023/06/20 11:43:28;;;;;;;4.68;1.83;;;29.00;44.40;;;;;;4959885;28;20508;-80
2023/06/20 11:46:00;;;;;;;3.47;1.80;;;29.00;44.90;;;;;;4976315;28;20683;-80
2023/06/20 11:48:28;;;;;;;4.47;1.95;;;28.90;44.10;;;;;;4964821;28;20038;-80
2023/06/20 11:51:02;;;;;;;3.10;1.70;;;28.80;43.50;;;;;;4941098;29;20043;-80
2023/06/20 11:53:31;;;;;;;4.03;1.92;;;29.00;43.40;;;;;;4940814;29;20115;-80
2023/06/20 11:55:58;;;;;;;4.15;2.17;;;29.10;43.90;;;;;;4960121;28;20062;-80
2023/06/20 11:58:26;;;;;;;5.03;2.00;;;29.10;45.10;;;;;;4968035;28;20442;-82
2023/06/20 12:01:09;;;;;;;3.70;1.70;;;29.10;43.10;;;;;;4966764;28;20019;-82
2023/06/20 12:03:38;;;;;;;3.90;2.10;;;29.00;42.70;;;;;;4968558;28;20033;-82
2023/06/20 12:06:24;;;;;;;4.15;2.00;;;29.20;44.00;;;;;;4965686;28;20027;-81
2023/06/20 12:08:55;;;;;;;3.75;1.92;;;29.20;43.50;;;;;;4959892;28;20175;-81
2023/06/20 12:11:21;;;;;;;3.65;1.30;;;29.20;43.50;;;;;;4965157;28;20031;-81
2023/06/20 12:13:47;;;;;;;3.83;1.60;;;29.20;42.20;;;;;;4965111;28;20070;-81
2023/06/20 12:16:13;;;;;;;4.57;1.90;;;29.00;41.80;;;;;;4975700;28;20023;-81
2023/06/20 12:18:39;;;;;;;3.72;1.70;;;29.10;42.20;;;;;;4977202;28;20027;-81
2023/06/20 12:21:05;;;;;;;4.00;2.03;;;29.20;42.70;;;;;;4975979;28;20481;-81
2023/06/20 12:23:31;;;;;;;4.90;1.98;;;29.20;42.70;;;;;;4976432;28;20027;-81
2023/06/20 12:25:57;;;;;;;4.20;1.83;;;29.20;43.50;;;;;;4991615;28;20098;-81
2023/06/20 12:28:23;;;;;;;6.03;2.10;;;29.20;43.10;;;;;;4958390;28;20090;-80
2023/06/20 12:30:49;;;;;;;2.97;1.52;;;29.30;43.00;;;;;;4963210;28;20476;-82
2023/06/20 12:33:15;;;;;;;4.38;1.90;;;29.20;43.20;;;;;;4976666;28;20445;-82
2023/06/20 12:35:41;;;;;;;7.25;2.05;;;28.90;42.30;;;;;;4975516;28;20031;-81
2023/06/20 12:38:07;;;;;;;3.75;1.67;;;28.80;42.90;;;;;;4957642;29;20083;-81
2023/06/20 12:40:32;;;;;;;4.63;3.05;;;28.80;43.70;;;;;;4957724;29;20469;-81
2023/06/20 12:42:58;;;;;;;6.43;2.78;;;28.80;44.30;;;;;;4957705;28;20383;-81
2023/06/20 12:45:24;;;;;;;3.88;2.13;;;29.00;44.30;;;;;;4957340;29;20031;-81
2023/06/20 12:47:50;;;;;;;3.25;1.67;;;28.90;43.40;;;;;;4940183;29;20033;-81
2023/06/20 12:50:15;;;;;;;5.00;2.33;;;28.80;44.20;;;;;;4957712;28;20393;-81
2023/06/20 12:52:41;;;;;;;6.65;3.53;;;28.80;43.40;;;;;;4960015;28;20039;-80
2023/06/20 12:55:07;;;;;;;7.57;2.88;;;28.90;44.50;;;;;;4957399;29;20478;-80
2023/06/20 12:57:33;;;;;;;4.35;2.03;;;29.20;45.50;;;;;;4975553;28;20039;-81
2023/06/20 12:59:59;;;;;;;4.47;2.10;;;29.00;44.90;;;;;;4959202;28;20023;-81
2023/06/20 13:02:27;;;;;;;3.75;1.67;;;29.00;43.00;;;;;;4958446;28;20035;-81
2023/06/20 13:04:54;;;;;;;4.70;2.00;;;28.90;44.50;;;;;;4970624;28;20030;-80
2023/06/20 13:07:20;;;;;;;4.03;1.90;;;29.00;44.60;;;;;;4972198;28;20027;-81
2023/06/20 13:09:50;;;;;;;4.78;2.17;;;28.90;44.00;;;;;;4962881;28;20031;-81
2023/06/20 13:12:17;;;;;;;5.18;2.22;;;28.80;43.90;;;;;;4962100;28;20023;-81
2023/06/20 13:14:43;;;;;;;4.00;2.10;;;28.70;43.70;;;;;;4948641;28;20026;-81
2023/06/20 13:17:10;;;;;;;5.53;2.00;;;28.70;44.90;;;;;;4963854;28;20059;-81
2023/06/20 13:19:36;;;;;;;4.47;2.20;;;28.80;45.30;;;;;;4960839;29;20114;-81
2023/06/20 13:22:02;;;;;;;5.60;2.38;;;28.90;45.50;;;;;;4961047;29;20094;-81
2023/06/20 13:24:28;;;;;;;3.78;1.90;;;28.90;45.70;;;;;;4977632;28;20109;-81
2023/06/20 13:26:54;;;;;;;5.78;2.10;;;28.90;44.10;;;;;;4963622;28;20066;-81
2023/06/20 13:29:19;;;;;;;5.50;2.10;;;29.00;45.00;;;;;;4946290;28;20031;-80
2023/06/20 13:31:45;;;;;;;7.97;5.32;;;29.00;43.20;;;;;;4979601;28;20398;-81
2023/06/20 13:34:11;;;;;;;9.13;5.30;;;28.90;44.10;;;;;;4971154;28;20031;-81
2023/06/20 13:36:36;;;;;;;7.50;3.95;;;29.10;43.50;;;;;;4980238;28;20019;-81
2023/06/20 13:39:02;;;;;;;5.60;2.75;;;29.00;43.60;;;;;;4978815;28;20030;-81
2023/06/20 13:41:28;;;;;;;4.65;2.35;;;28.90;43.80;;;;;;4979961;28;20438;-82
2023/06/20 13:43:54;;;;;;;6.80;2.97;;;28.70;44.20;;;;;;4962540;28;20042;-81
2023/06/20 13:46:20;;;;;;;6.80;2.22;;;28.60;45.40;;;;;;4978787;28;20034;-81
2023/06/20 13:48:48;;;;;;;6.28;2.33;;;28.40;44.40;;;;;;4979509;28;20041;-82
2023/06/20 13:51:17;;;;;;;5.50;2.20;;;28.30;42.60;;;;;;4978497;28;20022;-82
2023/06/20 13:53:44;;;;;;;4.43;2.47;;;28.00;43.00;;;;;;4960273;29;20034;-81
2023/06/20 13:56:10;;;;;;;4.03;1.95;;;28.00;43.00;;;;;;4960484;29;20474;-82
2023/06/20 13:58:37;;;;;;;5.68;2.40;;;27.90;43.50;;;;;;4977813;28;20106;-82
2023/06/20 14:01:06;;;;;;;4.63;2.20;;;28.00;43.90;;;;;;4979818;28;20023;-81
2023/06/20 14:03:31;;;;;;;5.45;2.45;;;28.10;43.70;;;;;;4960832;28;20087;-81
2023/06/20 14:05:57;;;;;;;5.53;2.42;;;28.20;42.90;;;;;;4965000;28;20090;-81
2023/06/20 14:08:23;;;;;;;4.18;1.88;;;28.30;42.90;;;;;;4967878;28;20027;-82
2023/06/20 14:10:50;;;;;;;3.33;1.55;;;28.30;42.90;;;;;;4972374;28;20049;-82
2023/06/20 14:13:16;;;;;;;3.65;1.77;;;28.30;42.70;;;;;;4966842;28;20040;-81
2023/06/20 14:15:42;;;;;;;4.47;1.98;;;28.30;41.70;;;;;;4964553;28;20078;-81
2023/06/20 14:18:08;;;;;;;3.85;1.98;;;28.30;41.80;;;;;;4978260;28;20023;-81
2023/06/20 14:20:35;;;;;;;5.15;2.13;;;28.30;40.40;;;;;;4959071;28;20014;-81
2023/06/20 14:23:01;;;;;;;3.78;1.63;;;28.30;41.50;;;;;;4970981;28;20050;-81
2023/06/20 14:25:27;;;;;;;4.15;2.00;;;28.30;41.90;;;;;;4969271;28;20032;-86
2023/06/20 14:27:53;;;;;;;4.65;1.85;;;28.30;42.70;;;;;;4962873;28;20493;-81
2023/06/20 14:30:18;;;;;;;4.22;1.90;;;28.40;43.10;;;;;;4967757;28;20549;-82
2023/06/20 14:32:44;;;;;;;6.03;2.03;;;28.40;43.00;;;;;;4965694;28;20131;-82
2023/06/20 14:35:10;;;;;;;5.05;2.33;;;28.40;42.60;;;;;;4965148;28;20023;-81
2023/06/20 14:37:35;;;;;;;5.10;2.10;;;28.40;44.30;;;;;;4969396;28;20516;-81
2023/06/20 14:40:01;;;;;;;4.13;1.80;;;28.40;43.40;;;;;;4950415;28;20022;-82
2023/06/20 14:42:26;;;;;;;5.32;2.33;;;28.30;43.40;;;;;;4963901;28;20027;-78
2023/06/20 14:44:52;;;;;;;4.50;2.30;;;28.10;44.60;;;;;;4960367;28;20055;-83
2023/06/20 14:47:18;;;;;;;4.22;1.98;;;28.20;43.80;;;;;;4971963;28;20041;-83
2023/06/20 14:49:45;;;;;;;4.82;2.08;;;28.00;44.00;;;;;;4967892;28;20027;-83
2023/06/20 14:52:11;;;;;;;4.03;2.10;;;27.80;44.50;;;;;;4968069;28;20019;-83
2023/06/20 14:54:37;;;;;;;4.38;1.88;;;27.90;45.10;;;;;;4966876;28;20041;-84
2023/06/20 14:57:04;;;;;;;4.65;2.20;;;28.20;44.50;;;;;;4969281;28;20027;-83
2023/06/20 14:59:30;;;;;;;3.08;1.40;;;28.10;44.10;;;;;;4957167;28;20405;-87
2023/06/20 15:01:57;;;;;;;4.88;1.95;;;27.90;43.90;;;;;;4970060;28;20039;-81
2023/06/20 15:04:23;;;;;;;5.93;2.25;;;27.80;44.30;;;;;;4964446;28;20051;-79
2023/06/20 15:06:49;;;;;;;4.55;2.10;;;27.70;44.70;;;;;;4957003;28;20468;-80
2023/06/20 15:09:15;;;;;;;4.88;2.35;;;27.70;46.20;;;;;;4968969;28;20490;-82
2023/06/20 15:11:42;;;;;;;4.40;2.22;;;27.80;46.30;;;;;;4968503;28;20110;-83
2023/06/20 15:14:07;;;;;;;4.93;2.20;;;27.80;45.80;;;;;;4969286;28;20031;-83
2023/06/20 15:16:34;;;;;;;5.55;2.33;;;27.60;45.60;;;;;;4968422;28;20035;-84
2023/06/20 15:19:01;;;;;;;4.13;2.13;;;27.30;46.30;;;;;;4967661;28;20027;-83
2023/06/20 15:21:26;;;;;;;3.53;2.08;;;27.20;47.00;;;;;;4967124;28;20023;-84
2023/06/20 15:23:52;;;;;;;4.47;2.03;;;27.30;46.80;;;;;;4972971;28;20028;-85
2023/06/20 15:26:18;;;;;;;4.53;2.10;;;27.30;46.90;;;;;;4980060;28;20034;-83
2023/06/20 15:28:44;;;;;;;5.65;2.45;;;27.00;47.30;;;;;;4974840;28;20410;-85
2023/06/20 15:31:10;;;;;;;3.83;2.00;;;26.90;47.20;;;;;;4976760;28;20082;-85
2023/06/20 15:33:37;;;;;;;3.33;1.90;;;26.70;48.30;;;;;;4958293;28;20045;-85
2023/06/20 15:36:02;;;;;;;4.15;2.20;;;26.80;48.30;;;;;;4977752;28;20029;-84
2023/06/20 15:38:28;;;;;;;5.13;2.20;;;26.90;48.40;;;;;;4977934;28;20018;-83
2023/06/20 15:40:54;;;;;;;4.68;2.40;;;27.10;48.40;;;;;;4957668;28;20027;-84
2023/06/20 15:43:20;;;;;;;4.78;1.95;;;27.10;48.80;;;;;;4958244;29;20082;-85
2023/06/20 15:45:46;;;;;;;3.88;1.77;;;27.30;49.00;;;;;;4958633;28;20020;-85
2023/06/20 15:48:15;;;;;;;3.72;1.83;;;27.30;46.90;;;;;;4958299;29;20059;-83
2023/06/20 15:50:40;;;;;;;3.85;1.60;;;27.60;47.70;;;;;;4958168;29;20106;-84
2023/06/20 15:53:06;;;;;;;4.78;2.00;;;27.80;47.80;;;;;;4941161;29;20055;-84
2023/06/20 15:55:32;;;;;;;3.67;2.00;;;27.50;47.50;;;;;;4959438;28;20387;-84
2023/06/20 15:57:57;;;;;;;2.88;1.50;;;27.50;47.00;;;;;;4971319;28;20030;-84
2023/06/20 16:00:23;;;;;;;4.28;1.45;;;27.30;47.50;;;;;;4968207;28;20050;-85
2023/06/20 16:02:49;;;;;;;4.00;2.05;;;26.80;47.90;;;;;;4977089;28;20017;-84
2023/06/20 16:05:15;;;;;;;3.60;2.08;;;26.50;49.30;;;;;;4976141;28;20047;-83
2023/06/20 16:07:41;;;;;;;8.00;2.10;;;26.40;50.30;;;;;;4974967;28;20030;-81
2023/06/20 16:10:07;;;;;;;5.32;2.00;;;26.30;50.80;;;;;;4955083;28;20035;-85
2023/06/20 16:12:33;;;;;;;3.35;1.63;;;26.40;50.70;;;;;;4974832;28;20038;-82
2023/06/20 16:14:58;;;;;;;3.75;1.83;;;26.40;49.60;;;;;;4967445;28;20041;-83
2023/06/20 16:17:24;;;;;;;3.90;1.75;;;26.40;48.30;;;;;;4964315;28;20426;-83
2023/06/20 16:19:51;;;;;;;4.10;1.65;;;26.50;47.20;;;;;;4975662;28;20486;-82
2023/06/20 16:22:17;;;;;;;5.28;1.80;;;26.40;46.80;;;;;;4973121;28;20023;-82
2023/06/20 16:24:44;;;;;;;5.20;1.88;;;26.50;47.40;;;;;;4970565;28;20419;-82
2023/06/20 16:27:10;;;;;;;4.38;1.85;;;26.40;48.10;;;;;;4975435;28;20033;-81
2023/06/20 16:29:36;;;;;;;4.25;1.75;;;26.30;48.20;;;;;;4976490;28;20027;-81
2023/06/20 16:32:02;;;;;;;3.67;1.73;;;26.20;47.90;;;;;;4974109;28;20402;-81
2023/06/20 16:34:28;;;;;;;3.85;2.08;;;26.10;48.20;;;;;;4976725;28;20478;-81
2023/06/20 16:36:54;;;;;;;3.50;1.50;;;26.10;48.70;;;;;;4973548;28;20101;-82
2023/06/20 16:39:19;;;;;;;4.57;1.50;;;25.90;49.80;;;;;;4976345;28;20034;-82
2023/06/20 16:41:45;;;;;;;4.00;1.65;;;26.00;49.90;;;;;;4976226;28;20027;-85
2023/06/20 16:44:11;;;;;;;5.70;1.75;;;26.00;50.20;;;;;;4976905;28;20051;-85
2023/06/20 16:46:41;;;;;;;4.18;1.63;;;26.00;50.40;;;;;;4970291;28;20054;-84
2023/06/20 16:49:07;;;;;;;3.75;1.92;;;26.00;51.00;;;;;;4940339;29;20130;-84
2023/06/20 16:51:34;;;;;;;5.90;1.98;;;26.00;51.20;;;;;;4971760;28;20490;-87
2023/06/20 16:54:01;;;;;;;3.85;1.80;;;26.10;51.90;;;;;;4953421;29;20051;-84
2023/06/20 16:56:27;;;;;;;3.80;1.83;;;26.30;51.40;;;;;;4940225;29;20031;-79
2023/06/20 16:58:53;;;;;;;3.53;1.92;;;26.40;50.60;;;;;;4923998;29;20027;-87
2023/06/20 17:01:19;;;;;;;6.55;1.60;;;26.30;48.80;;;;;;4940546;29;20488;-90
2023/06/20 17:03:45;;;;;;;3.75;1.60;;;26.10;48.80;;;;;;4945746;28;20030;-78
2023/06/20 17:06:10;;;;;;;4.10;1.63;;;26.00;48.80;;;;;;4976361;28;20029;-80
2023/06/20 17:08:36;;;;;;;3.33;1.58;;;25.90;48.70;;;;;;4955783;28;20424;-79
2023/06/20 17:11:02;;;;;;;4.05;1.80;;;25.90;48.20;;;;;;4977725;28;20073;-80
2023/06/20 17:13:27;;;;;;;4.78;1.70;;;26.10;47.80;;;;;;4973294;28;20031;-87
2023/06/20 17:15:53;;;;;;;3.67;1.52;;;26.30;47.50;;;;;;4956798;29;20066;-80